Time;durP1;ratioP1;P1;durP2;ratioP2;P2;SDS_P1;SDS_P2;PMS_P1;PMS_P2;Temp;Humidity;BMP_temperature;BMP_pressure;BME280_temperature;BME280_humidity;BME280_pressure;Samples;Min_cycle;Max_cycle;Signal;HPM_P1;HPM_P2
2023/01/21 00:03:24;;;;;;;5.73;4.20;;;15.70;77.20;;;;;;10499727;28;20090;-26
2023/01/21 00:08:28;;;;;;;4.38;3.10;;;15.70;77.40;;;;;;10508605;28;20105;-26
2023/01/21 00:13:30;;;;;;;5.28;3.10;;;15.60;77.50;;;;;;10510515;28;20052;-27
2023/01/21 00:18:32;;;;;;;6.40;3.37;;;15.60;77.50;;;;;;10516502;28;20055;-26
2023/01/21 00:23:35;;;;;;;6.28;3.47;;;15.30;78.70;;;;;;10506820;28;20071;-27
2023/01/21 00:28:37;;;;;;;4.60;3.33;;;15.50;77.90;;;;;;10508984;28;20117;-26
2023/01/21 00:33:39;;;;;;;5.95;3.85;;;15.40;76.90;;;;;;10513277;28;20055;-26
2023/01/21 00:38:42;;;;;;;7.80;4.47;;;15.40;77.10;;;;;;10513559;28;20118;-26
2023/01/21 00:43:44;;;;;;;8.70;5.20;;;15.40;77.20;;;;;;10512581;28;20471;-26
2023/01/21 00:48:46;;;;;;;14.10;5.90;;;15.30;77.00;;;;;;10509691;28;20075;-26
2023/01/21 00:53:49;;;;;;;16.20;7.73;;;15.30;77.20;;;;;;10506419;28;20040;-30
2023/01/21 00:58:51;;;;;;;17.08;8.70;;;15.20;77.20;;;;;;10509424;28;20135;-25
2023/01/21 01:03:53;;;;;;;18.57;8.80;;;15.20;77.30;;;;;;10511569;28;20076;-26
2023/01/21 01:08:57;;;;;;;17.47;9.10;;;15.10;76.40;;;;;;10518284;28;20052;-25
2023/01/21 01:13:59;;;;;;;16.63;9.63;;;15.10;77.30;;;;;;10508201;28;20511;-25
2023/01/21 01:19:01;;;;;;;17.42;8.55;;;15.20;76.80;;;;;;10500774;28;20052;-30
2023/01/21 01:24:05;;;;;;;21.53;10.97;;;15.10;77.20;;;;;;10510932;28;20559;-25
2023/01/21 01:29:07;;;;;;;19.63;10.40;;;15.10;76.60;;;;;;10513026;28;20829;-26
2023/01/21 01:34:09;;;;;;;25.10;10.43;;;15.10;76.40;;;;;;10513297;28;20454;-26
2023/01/21 01:39:12;;;;;;;19.83;10.47;;;15.10;76.50;;;;;;10509109;28;20040;-26
2023/01/21 01:44:51;;;;;;;22.58;11.60;;;15.10;75.20;;;;;;10511343;28;20541;-26
2023/01/21 01:49:53;;;;;;;19.83;10.00;;;15.10;76.70;;;;;;10503758;28;20135;-24
2023/01/21 01:54:59;;;;;;;23.97;11.17;;;15.00;76.80;;;;;;10504143;28;20139;-27
2023/01/21 02:00:03;;;;;;;17.60;9.95;;;15.00;76.10;;;;;;10504979;28;20044;-25
2023/01/21 02:05:07;;;;;;;20.70;10.55;;;15.00;76.00;;;;;;10496570;28;20061;-29
2023/01/21 02:10:13;;;;;;;21.92;10.55;;;15.00;76.40;;;;;;10506705;28;20041;-26
2023/01/21 02:15:16;;;;;;;20.88;10.68;;;15.00;75.90;;;;;;10516975;28;20142;-33
2023/01/21 02:20:50;;;;;;;19.58;11.05;;;14.90;75.50;;;;;;10499289;28;20046;-27
2023/01/21 02:26:33;;;;;;;18.75;9.77;;;14.80;75.90;;;;;;10512405;28;20088;-26
2023/01/21 02:32:07;;;;;;;24.65;10.90;;;14.80;75.30;;;;;;10501799;28;20086;-25
2023/01/21 02:37:15;;;;;;;22.30;11.10;;;14.80;75.10;;;;;;10498040;28;20080;-24
2023/01/21 02:42:24;;;;;;;17.02;9.55;;;14.80;75.60;;;;;;10493173;28;20695;-26
2023/01/21 02:47:30;;;;;;;17.15;9.52;;;14.70;75.40;;;;;;10491834;28;20499;-26
2023/01/21 02:52:33;;;;;;;19.00;9.38;;;14.70;75.60;;;;;;10496275;28;20453;-26
2023/01/21 02:57:39;;;;;;;19.42;10.07;;;14.70;76.10;;;;;;10501013;28;20131;-25
2023/01/21 03:03:21;;;;;;;21.92;10.60;;;14.70;75.30;;;;;;10485370;28;20076;-25
2023/01/21 03:08:32;;;;;;;20.80;9.70;;;14.60;75.20;;;;;;10498597;28;20084;-25
2023/01/21 03:19:05;;;;;;;19.05;9.95;;;14.60;75.10;;;;;;10491338;28;20590;-25
2023/01/21 03:24:10;;;;;;;18.38;9.60;;;14.60;75.30;;;;;;10488640;28;20084;-26
2023/01/21 03:29:16;;;;;;;16.27;9.13;;;14.60;75.30;;;;;;10500324;28;20081;-25
2023/01/21 03:34:19;;;;;;;16.58;8.27;;;14.60;75.00;;;;;;10518513;28;20540;-25
2023/01/21 03:39:33;;;;;;;14.35;7.90;;;14.50;75.00;;;;;;10515616;28;20041;-24
2023/01/21 03:44:35;;;;;;;17.10;9.27;;;14.50;75.20;;;;;;10513244;28;20105;-27
2023/01/21 03:49:41;;;;;;;13.50;7.43;;;14.50;75.40;;;;;;10502643;28;20102;-26
2023/01/21 03:54:47;;;;;;;15.98;8.48;;;14.50;75.00;;;;;;10498677;28;20051;-24
2023/01/21 03:59:49;;;;;;;15.52;8.07;;;14.40;75.20;;;;;;10499449;28;20555;-27
2023/01/21 04:04:51;;;;;;;15.97;8.00;;;14.40;75.00;;;;;;10501986;28;20043;-25
2023/01/21 04:09:55;;;;;;;13.90;7.22;;;14.30;74.80;;;;;;10520870;28;20095;-26
2023/01/21 04:14:57;;;;;;;14.70;7.57;;;14.30;74.90;;;;;;10512266;28;20468;-26
2023/01/21 04:19:59;;;;;;;13.20;7.43;;;14.30;75.00;;;;;;10513371;28;20135;-26
2023/01/21 04:25:02;;;;;;;13.63;8.23;;;14.20;75.20;;;;;;10519661;28;20087;-26
2023/01/21 04:30:04;;;;;;;11.68;7.03;;;14.20;74.80;;;;;;10499567;28;20561;-25
2023/01/21 04:35:07;;;;;;;13.02;6.97;;;14.20;74.60;;;;;;10496861;28;20133;-26
2023/01/21 04:40:12;;;;;;;11.98;7.13;;;14.10;74.70;;;;;;10505121;28;20048;-25
2023/01/21 04:45:14;;;;;;;11.60;6.85;;;14.20;75.20;;;;;;10494025;28;20041;-26
2023/01/21 04:50:16;;;;;;;11.00;6.23;;;14.20;74.70;;;;;;10493842;28;20105;-25
2023/01/21 04:55:20;;;;;;;12.98;6.88;;;14.10;74.70;;;;;;10493586;28;20159;-25
2023/01/21 05:00:22;;;;;;;12.35;6.53;;;14.10;74.70;;;;;;10489262;28;20045;-25
2023/01/21 05:05:24;;;;;;;13.90;7.63;;;14.00;75.00;;;;;;10519975;28;20040;-26
2023/01/21 05:10:27;;;;;;;10.80;6.80;;;14.00;75.10;;;;;;10501342;28;20606;-25
2023/01/21 05:15:31;;;;;;;10.80;6.32;;;14.00;75.10;;;;;;10499241;28;20167;-25
2023/01/21 05:20:32;;;;;;;11.68;6.53;;;13.90;75.10;;;;;;10509629;28;20040;-25
2023/01/21 05:25:36;;;;;;;11.67;6.67;;;13.90;74.90;;;;;;10508371;28;20497;-26
2023/01/21 05:30:38;;;;;;;11.95;6.75;;;13.90;74.50;;;;;;10504961;28;20121;-25
2023/01/21 05:35:39;;;;;;;10.50;5.57;;;13.90;74.50;;;;;;10490477;28;20091;-26
2023/01/21 05:40:43;;;;;;;9.02;5.40;;;13.90;74.80;;;;;;10492966;28;20471;-25
2023/01/21 05:45:44;;;;;;;9.68;6.35;;;14.00;74.80;;;;;;10492430;28;20102;-26
2023/01/21 05:50:47;;;;;;;11.30;6.00;;;14.10;74.90;;;;;;10487589;28;20131;-26
2023/01/21 05:55:52;;;;;;;10.10;5.85;;;14.10;74.90;;;;;;10492126;28;20056;-26
2023/01/21 06:00:56;;;;;;;11.07;6.10;;;14.10;74.80;;;;;;10491691;28;20041;-25
2023/01/21 06:05:58;;;;;;;7.97;5.10;;;14.20;74.70;;;;;;10493737;28;20131;-25
2023/01/21 06:11:01;;;;;;;8.32;5.18;;;14.20;74.80;;;;;;10494126;28;20105;-25
2023/01/21 06:16:03;;;;;;;7.28;4.80;;;14.20;74.60;;;;;;10495882;28;20149;-27
2023/01/21 06:21:06;;;;;;;8.77;5.70;;;14.20;74.90;;;;;;10489873;28;20083;-26
2023/01/21 06:26:09;;;;;;;7.93;5.00;;;14.20;74.70;;;;;;10492884;28;20060;-25
2023/01/21 06:31:11;;;;;;;7.82;5.07;;;14.20;74.60;;;;;;10497674;28;20051;-26
2023/01/21 06:36:12;;;;;;;8.90;4.68;;;14.30;74.60;;;;;;10477492;28;20053;-25
2023/01/21 06:41:16;;;;;;;7.32;4.93;;;14.20;74.60;;;;;;10493150;28;20048;-26
2023/01/21 06:46:17;;;;;;;7.15;4.72;;;14.20;74.60;;;;;;10503488;28;20055;-28
2023/01/21 06:51:19;;;;;;;7.78;4.82;;;14.20;74.70;;;;;;10504970;28;20097;-26
2023/01/21 06:56:22;;;;;;;8.40;4.82;;;14.20;74.60;;;;;;10500773;28;20083;-25
2023/01/21 07:14:36;;;;;;;6.45;4.40;;;14.30;74.00;;;;;;10504181;27;20122;-26
2023/01/21 07:19:38;;;;;;;6.40;4.13;;;14.30;74.30;;;;;;10479856;28;20102;-27
2023/01/21 07:24:40;;;;;;;7.73;4.63;;;14.20;74.50;;;;;;10469702;28;20076;-26
2023/01/21 07:29:43;;;;;;;8.17;5.00;;;14.20;74.60;;;;;;10474389;28;20076;-25
2023/01/21 07:34:45;;;;;;;7.20;4.07;;;14.20;74.30;;;;;;10466678;28;20057;-29
2023/01/21 07:39:47;;;;;;;9.53;4.80;;;14.40;74.80;;;;;;10474217;28;20465;-26
2023/01/21 07:44:50;;;;;;;5.63;3.87;;;14.40;75.10;;;;;;10476335;28;20098;-26
2023/01/21 07:49:52;;;;;;;7.88;4.47;;;14.40;75.10;;;;;;10478441;28;20053;-26
2023/01/21 07:54:54;;;;;;;5.93;3.88;;;14.50;75.40;;;;;;10471887;28;20469;-26
2023/01/21 07:59:57;;;;;;;7.37;4.50;;;14.50;75.70;;;;;;10477260;28;20048;-28
2023/01/21 08:04:59;;;;;;;6.93;4.38;;;14.50;75.40;;;;;;10476976;28;20044;-25
2023/01/21 08:10:01;;;;;;;8.95;4.70;;;14.50;76.10;;;;;;10471326;28;20508;-27
2023/01/21 08:15:05;;;;;;;12.40;3.83;;;14.50;75.60;;;;;;10470494;28;20465;-27
2023/01/21 08:20:09;;;;;;;6.30;4.07;;;14.40;75.70;;;;;;10478421;28;20127;-25
2023/01/21 08:25:12;;;;;;;8.48;3.80;;;14.50;75.60;;;;;;10444741;28;20168;-26
2023/01/21 08:30:16;;;;;;;8.98;4.97;;;14.50;75.60;;;;;;10448285;28;20052;-25
2023/01/21 08:35:18;;;;;;;6.60;4.45;;;14.50;75.60;;;;;;10450651;28;20055;-25
2023/01/21 08:40:20;;;;;;;12.97;6.80;;;14.60;75.60;;;;;;10450048;28;20195;-24
2023/01/21 08:45:23;;;;;;;12.60;6.37;;;14.40;75.40;;;;;;10444038;28;20168;-27
2023/01/21 08:50:25;;;;;;;15.55;7.63;;;14.50;75.10;;;;;;10449648;28;20049;-27
2023/01/21 08:55:27;;;;;;;19.40;9.07;;;14.50;75.50;;;;;;10450091;28;20068;-28
2023/01/21 09:00:31;;;;;;;21.17;10.93;;;14.60;75.90;;;;;;10443605;28;20045;-25
2023/01/21 09:05:33;;;;;;;19.70;9.65;;;14.70;80.00;;;;;;10447813;28;20083;-26
2023/01/21 09:15:56;;;;;;;16.77;7.82;;;15.40;79.60;;;;;;10448955;28;20489;-24
2023/01/21 09:21:01;;;;;;;6.03;3.72;;;15.60;79.70;;;;;;10447475;28;20056;-25
2023/01/21 09:26:06;;;;;;;7.07;3.80;;;15.80;81.80;;;;;;10447696;28;20053;-25
2023/01/21 09:31:12;;;;;;;19.23;6.85;;;15.50;81.20;;;;;;10447340;28;20445;-25
2023/01/21 09:36:16;;;;;;;23.63;8.68;;;15.50;81.10;;;;;;10456773;28;20076;-25
2023/01/21 09:41:25;;;;;;;22.20;10.07;;;15.50;80.60;;;;;;10447394;28;20060;-25
2023/01/21 09:46:34;;;;;;;23.55;10.68;;;15.30;81.10;;;;;;10436120;28;20108;-26
2023/01/21 09:51:49;;;;;;;25.70;10.75;;;15.30;80.50;;;;;;10442467;28;20052;-27
2023/01/21 09:57:05;;;;;;;20.98;8.95;;;15.30;80.10;;;;;;10439672;28;20110;-25
2023/01/21 10:02:20;;;;;;;22.48;10.80;;;15.20;79.70;;;;;;10447436;28;20045;-25
2023/01/21 10:07:27;;;;;;;20.33;9.50;;;15.30;79.30;;;;;;10441159;28;20041;-25
2023/01/21 10:12:51;;;;;;;19.38;8.43;;;15.40;79.10;;;;;;10446528;28;20056;-25
2023/01/21 10:17:58;;;;;;;18.17;8.27;;;15.40;78.70;;;;;;10445977;28;20081;-24
2023/01/21 10:23:04;;;;;;;15.32;7.32;;;15.40;78.20;;;;;;10446720;28;20516;-25
2023/01/21 10:28:13;;;;;;;10.30;5.47;;;15.50;77.60;;;;;;10444685;28;20110;-25
2023/01/21 10:33:20;;;;;;;11.93;5.97;;;15.60;77.40;;;;;;10446039;28;20504;-25
2023/01/21 10:38:31;;;;;;;15.75;6.75;;;15.60;77.30;;;;;;10434858;28;20588;-27
2023/01/21 10:43:40;;;;;;;12.88;6.18;;;15.50;77.60;;;;;;10444021;28;20049;-27
2023/01/21 10:48:49;;;;;;;13.27;6.20;;;15.50;77.50;;;;;;10441795;28;20152;-25
2023/01/21 10:53:56;;;;;;;11.52;5.65;;;15.50;77.40;;;;;;10445976;28;20053;-25
2023/01/21 10:59:03;;;;;;;11.48;6.63;;;15.50;77.40;;;;;;10445463;28;20407;-26
2023/01/21 11:04:12;;;;;;;18.85;7.65;;;15.50;77.40;;;;;;10444034;28;20048;-25
2023/01/21 11:09:15;;;;;;;16.52;7.28;;;15.50;77.20;;;;;;10446099;28;20121;-25
2023/01/21 11:14:17;;;;;;;11.35;6.55;;;15.50;77.00;;;;;;10437675;28;20052;-26
2023/01/21 11:19:23;;;;;;;12.23;7.00;;;15.50;77.40;;;;;;10443704;28;20059;-26
2023/01/21 11:24:26;;;;;;;14.40;6.82;;;15.50;77.20;;;;;;10444197;28;20053;-28
2023/01/21 11:29:39;;;;;;;15.73;7.05;;;15.60;76.90;;;;;;10441986;28;20079;-25
2023/01/21 11:34:46;;;;;;;15.38;7.55;;;15.60;76.60;;;;;;10446444;28;20057;-26
2023/01/21 11:39:52;;;;;;;14.05;7.97;;;15.60;76.20;;;;;;10444038;28;20056;-27
2023/01/21 11:44:56;;;;;;;15.23;6.65;;;15.60;75.90;;;;;;10441486;28;20068;-25
2023/01/21 11:50:10;;;;;;;18.35;7.80;;;15.60;76.00;;;;;;10438393;28;20045;-24
2023/01/21 11:55:23;;;;;;;17.25;8.63;;;15.60;75.80;;;;;;10437322;28;20439;-24
2023/01/21 12:00:27;;;;;;;15.10;8.23;;;15.50;75.60;;;;;;10450511;28;20135;-27
2023/01/21 12:05:34;;;;;;;14.52;7.15;;;15.60;75.80;;;;;;10450422;28;20045;-24
2023/01/21 12:10:42;;;;;;;16.27;8.02;;;15.70;75.40;;;;;;10449484;28;20064;-26
2023/01/21 12:16:06;;;;;;;17.40;8.40;;;15.70;75.60;;;;;;10451272;28;20065;-25
2023/01/21 12:21:20;;;;;;;15.43;8.35;;;15.80;75.30;;;;;;10451142;28;20056;-27
2023/01/21 12:26:35;;;;;;;16.30;7.75;;;15.70;75.60;;;;;;10441082;28;20076;-25
2023/01/21 12:31:41;;;;;;;16.55;7.57;;;15.80;75.30;;;;;;10446035;28;20056;-27
2023/01/21 12:36:49;;;;;;;18.23;8.60;;;15.80;75.40;;;;;;10453150;28;20072;-25
2023/01/21 12:42:00;;;;;;;20.75;9.95;;;15.80;75.50;;;;;;10451868;28;20045;-26
2023/01/21 12:47:08;;;;;;;18.92;9.07;;;15.80;75.60;;;;;;10442212;28;20086;-26
2023/01/21 12:52:18;;;;;;;26.98;13.35;;;15.80;75.20;;;;;;10449012;28;20148;-25
2023/01/21 12:57:27;;;;;;;25.42;12.85;;;15.80;75.60;;;;;;10464746;28;20099;-27
2023/01/21 13:02:34;;;;;;;22.88;11.35;;;15.80;75.60;;;;;;10467472;28;20053;-25
2023/01/21 13:07:47;;;;;;;26.30;12.10;;;15.90;75.00;;;;;;10466901;28;20539;-25
2023/01/21 13:12:54;;;;;;;29.88;14.32;;;15.80;75.40;;;;;;10452494;28;20464;-27
2023/01/21 13:17:59;;;;;;;29.50;13.80;;;15.70;75.70;;;;;;10456930;28;20045;-25
2023/01/21 13:23:12;;;;;;;28.90;13.23;;;15.80;75.40;;;;;;10465684;28;20200;-25
2023/01/21 13:28:21;;;;;;;31.20;14.98;;;15.70;75.40;;;;;;10456176;28;20036;-25
2023/01/21 13:33:33;;;;;;;31.65;14.18;;;15.70;75.60;;;;;;10455277;28;20077;-28
2023/01/21 13:38:45;;;;;;;35.80;14.95;;;15.70;75.90;;;;;;10448590;28;20151;-25
2023/01/21 13:43:55;;;;;;;29.33;14.00;;;15.80;75.50;;;;;;10446526;28;20068;-24
2023/01/21 13:49:21;;;;;;;26.00;12.90;;;15.90;75.10;;;;;;10446931;28;20049;-25
2023/01/21 13:54:56;;;;;;;28.65;12.75;;;15.80;75.50;;;;;;10453375;28;20131;-27
2023/01/21 14:00:03;;;;;;;22.90;11.50;;;15.00;78.60;;;;;;10455263;28;20112;-24
2023/01/21 14:05:11;;;;;;;23.60;11.10;;;14.50;84.10;;;;;;10472778;28;20789;-27
2023/01/21 14:10:22;;;;;;;23.33;11.48;;;14.70;83.50;;;;;;10448330;28;20044;-27
2023/01/21 14:15:43;;;;;;;22.73;11.27;;;15.20;80.10;;;;;;10442088;28;20134;-25
2023/01/21 14:21:13;;;;;;;22.38;11.10;;;15.20;80.30;;;;;;10446660;28;20057;-25
2023/01/21 14:26:30;;;;;;;20.35;10.18;;;15.10;81.30;;;;;;10457770;28;20118;-25
2023/01/21 14:31:38;;;;;;;18.42;9.32;;;15.20;81.10;;;;;;10444720;28;20143;-24
2023/01/21 14:36:48;;;;;;;18.63;9.38;;;15.40;80.50;;;;;;10446016;28;20055;-24
2023/01/21 14:42:02;;;;;;;19.55;8.95;;;15.50;80.40;;;;;;10445703;28;20498;-24
2023/01/21 14:47:21;;;;;;;17.42;9.07;;;15.60;80.60;;;;;;10450889;28;20055;-24
2023/01/21 14:52:30;;;;;;;20.13;10.30;;;15.50;81.80;;;;;;10445010;28;20549;-25
2023/01/21 14:57:35;;;;;;;18.52;8.68;;;15.60;81.40;;;;;;10439085;28;20049;-25
2023/01/21 15:02:39;;;;;;;18.70;9.32;;;15.70;81.70;;;;;;10446707;28;20207;-27
2023/01/21 15:07:44;;;;;;;18.35;8.88;;;15.60;83.00;;;;;;10446645;28;20099;-25
2023/01/21 15:12:52;;;;;;;15.55;8.02;;;15.70;83.40;;;;;;10460150;28;20084;-24
2023/01/21 15:18:23;;;;;;;14.50;8.40;;;15.70;83.50;;;;;;10440300;28;20044;-26
2023/01/21 15:23:38;;;;;;;16.67;7.95;;;15.70;83.00;;;;;;10442739;28;20049;-23
2023/01/21 15:28:43;;;;;;;15.68;7.72;;;15.90;83.80;;;;;;10433955;28;20072;-25
2023/01/21 15:33:47;;;;;;;14.20;7.63;;;15.90;83.80;;;;;;10440190;28;20164;-25
2023/01/21 15:38:51;;;;;;;11.98;7.18;;;15.90;84.40;;;;;;10451093;28;20102;-25
2023/01/21 15:44:10;;;;;;;14.40;7.90;;;15.90;85.30;;;;;;10451601;28;20463;-27
2023/01/21 15:49:31;;;;;;;14.77;7.38;;;15.90;85.60;;;;;;10449450;28;20045;-25
2023/01/21 15:54:41;;;;;;;12.93;7.10;;;16.00;86.00;;;;;;10450351;28;20045;-27
2023/01/21 16:00:21;;;;;;;10.80;6.82;;;15.90;86.70;;;;;;10452343;28;20084;-25
2023/01/21 16:05:31;;;;;;;16.25;7.18;;;15.90;86.70;;;;;;10448062;28;20199;-25
2023/01/21 16:10:39;;;;;;;14.13;7.85;;;15.90;87.20;;;;;;10449124;28;20052;-26
2023/01/21 16:15:52;;;;;;;13.85;7.97;;;15.90;87.80;;;;;;10462288;28;20080;-25
2023/01/21 16:20:56;;;;;;;;;;;15.80;88.20;;;;;;10440695;28;20444;-25
2023/01/21 16:25:57;;;;;;;;;;;15.90;88.40;;;;;;10450500;28;19928;-24
2023/01/21 16:31:04;;;;;;;10.88;6.43;;;15.80;88.70;;;;;;10447879;28;20678;-23
2023/01/21 16:36:08;;;;;;;14.15;6.78;;;15.80;88.60;;;;;;10446362;28;20057;-26
2023/01/21 16:41:23;;;;;;;16.15;7.70;;;16.00;86.30;;;;;;10449855;28;20116;-25
2023/01/21 16:46:31;;;;;;;15.18;7.38;;;16.20;84.10;;;;;;10447034;28;20084;-25
2023/01/21 16:51:35;;;;;;;14.65;8.18;;;16.20;83.10;;;;;;10452406;28;20051;-24
2023/01/21 16:56:47;;;;;;;15.65;8.15;;;16.20;82.50;;;;;;10453601;28;20068;-26
2023/01/21 17:01:51;;;;;;;14.70;8.13;;;16.20;82.30;;;;;;10441909;28;20052;-25
2023/01/21 17:06:53;;;;;;;11.80;6.32;;;16.20;82.10;;;;;;10444336;28;20072;-26
2023/01/21 17:11:56;;;;;;;15.45;7.32;;;16.20;81.60;;;;;;10447794;28;20061;-25
2023/01/21 17:17:02;;;;;;;12.63;7.07;;;16.20;81.50;;;;;;10448584;28;20452;-23
2023/01/21 17:22:12;;;;;;;12.02;6.85;;;16.20;81.40;;;;;;10450917;28;20045;-26
2023/01/21 17:27:18;;;;;;;12.45;6.53;;;16.30;80.80;;;;;;10451449;28;20048;-27
2023/01/21 17:32:31;;;;;;;13.55;6.80;;;16.40;80.40;;;;;;10444727;28;20109;-26
2023/01/21 17:37:44;;;;;;;14.50;6.20;;;16.40;79.70;;;;;;10448783;28;20094;-25
2023/01/21 17:42:46;;;;;;;12.25;6.80;;;16.50;79.30;;;;;;10444781;28;20095;-25
2023/01/21 17:47:53;;;;;;;15.35;6.90;;;16.40;79.50;;;;;;10447291;28;20509;-25
2023/01/21 17:52:57;;;;;;;9.57;5.82;;;16.40;80.00;;;;;;10446196;28;20891;-26
2023/01/21 17:58:03;;;;;;;9.25;5.60;;;16.40;79.40;;;;;;10438326;28;20145;-26
2023/01/21 18:03:06;;;;;;;8.88;5.50;;;16.40;79.40;;;;;;10448729;28;20052;-27
2023/01/21 18:08:13;;;;;;;10.30;5.90;;;16.40;79.30;;;;;;10446813;28;20052;-26
2023/01/21 18:13:15;;;;;;;11.77;5.32;;;16.20;80.00;;;;;;10440566;28;20068;-26
2023/01/21 18:18:21;;;;;;;9.82;5.70;;;16.10;80.40;;;;;;10444047;28;20091;-27
2023/01/21 18:23:23;;;;;;;10.77;6.15;;;15.90;80.30;;;;;;10444444;28;20405;-24
2023/01/21 18:28:27;;;;;;;12.47;6.83;;;15.90;80.70;;;;;;10440890;28;20478;-25
2023/01/21 18:33:30;;;;;;;9.82;5.55;;;15.80;81.00;;;;;;10437752;28;20098;-24
2023/01/21 18:38:34;;;;;;;9.98;6.10;;;15.70;81.10;;;;;;10441013;28;20183;-26
2023/01/21 18:43:36;;;;;;;8.73;5.40;;;15.60;81.20;;;;;;10437935;28;20053;-24
2023/01/21 18:48:41;;;;;;;9.10;5.07;;;15.60;81.30;;;;;;10442809;28;20452;-26
2023/01/21 18:53:43;;;;;;;9.43;5.45;;;15.50;80.90;;;;;;10440282;28;20596;-25
2023/01/21 18:58:45;;;;;;;9.73;6.13;;;15.50;80.90;;;;;;10450804;28;20040;-26
2023/01/21 19:03:48;;;;;;;9.57;6.27;;;15.40;80.50;;;;;;10447585;28;20051;-23
2023/01/21 19:08:50;;;;;;;9.00;5.28;;;15.40;80.70;;;;;;10434949;28;20080;-25
2023/01/21 19:13:52;;;;;;;8.75;5.40;;;15.40;80.80;;;;;;10441311;28;20118;-25
2023/01/21 19:18:56;;;;;;;8.50;5.13;;;15.30;80.30;;;;;;10443144;28;20044;-25
2023/01/21 19:23:58;;;;;;;7.55;4.65;;;15.30;80.20;;;;;;10441318;28;20114;-25
2023/01/21 19:29:00;;;;;;;8.57;4.97;;;15.40;80.20;;;;;;10443131;28;20125;-24
2023/01/21 19:34:03;;;;;;;7.10;4.57;;;15.70;78.70;;;;;;10439117;28;20072;-25
2023/01/21 19:39:14;;;;;;;9.00;4.78;;;15.80;78.20;;;;;;10443827;28;20053;-25
2023/01/21 19:44:16;;;;;;;9.00;4.85;;;15.80;77.90;;;;;;10443721;28;20049;-27
2023/01/21 19:49:19;;;;;;;5.63;4.20;;;15.90;77.90;;;;;;10431324;28;20091;-25
2023/01/21 19:54:21;;;;;;;6.45;4.07;;;15.90;77.70;;;;;;10435940;28;20048;-25
2023/01/21 19:59:23;;;;;;;5.00;3.67;;;15.80;77.50;;;;;;10441491;28;20052;-27
2023/01/21 20:04:26;;;;;;;6.17;3.63;;;15.90;77.40;;;;;;10432587;28;20077;-28
2023/01/21 20:09:28;;;;;;;5.32;3.72;;;15.90;77.50;;;;;;10441395;28;20061;-26
2023/01/21 20:14:30;;;;;;;7.40;4.07;;;15.90;77.00;;;;;;10443828;28;20506;-26
2023/01/21 20:19:33;;;;;;;7.07;4.30;;;16.00;76.80;;;;;;10443510;28;20081;-22
2023/01/21 20:24:35;;;;;;;5.88;4.05;;;15.90;76.80;;;;;;10445824;28;20139;-25
2023/01/21 20:29:37;;;;;;;10.00;4.20;;;15.90;76.60;;;;;;10449123;28;20140;-28
2023/01/21 20:34:40;;;;;;;6.80;4.27;;;15.90;77.10;;;;;;10443608;28;20135;-26
2023/01/21 20:39:42;;;;;;;6.90;4.43;;;15.90;76.50;;;;;;10452997;28;20041;-26
2023/01/21 20:44:44;;;;;;;5.67;3.70;;;15.90;76.60;;;;;;10444275;28;20114;-26
2023/01/21 20:49:47;;;;;;;6.28;4.05;;;15.90;76.80;;;;;;10434192;28;20537;-26
2023/01/21 20:54:49;;;;;;;6.20;3.83;;;15.90;76.70;;;;;;10446024;28;20091;-26
2023/01/21 20:59:51;;;;;;;7.87;4.70;;;15.90;76.60;;;;;;10449850;28;20054;-26
2023/01/21 21:04:54;;;;;;;7.57;4.30;;;15.80;76.50;;;;;;10449780;28;20103;-25
2023/01/21 21:09:58;;;;;;;9.00;4.63;;;15.90;76.40;;;;;;10453569;28;20136;-25
2023/01/21 21:15:00;;;;;;;7.00;4.28;;;15.90;76.20;;;;;;10452245;28;20068;-24
2023/01/21 21:20:04;;;;;;;6.53;4.07;;;15.90;76.00;;;;;;10437039;28;20158;-25
2023/01/21 21:25:07;;;;;;;9.63;3.88;;;15.90;76.00;;;;;;10446864;28;20759;-25
2023/01/21 21:30:12;;;;;;;9.57;4.72;;;15.90;75.90;;;;;;10449469;28;20128;-26
2023/01/21 21:35:23;;;;;;;5.88;3.90;;;15.80;75.70;;;;;;10450765;28;20094;-25
2023/01/21 21:40:28;;;;;;;7.43;4.50;;;15.90;75.70;;;;;;10447733;28;20072;-24
2023/01/21 21:45:30;;;;;;;6.15;4.32;;;15.80;75.70;;;;;;10441459;28;20410;-25
2023/01/21 21:50:35;;;;;;;6.75;4.35;;;15.80;75.70;;;;;;10448390;28;20139;-25
2023/01/21 21:55:37;;;;;;;5.93;3.88;;;15.70;75.70;;;;;;10447331;28;20053;-24
2023/01/21 22:00:38;;;;;;;7.77;4.13;;;15.70;75.70;;;;;;10448111;28;20099;-25
2023/01/21 22:05:51;;;;;;;6.37;3.87;;;15.70;75.60;;;;;;10445635;28;20095;-24
2023/01/21 22:10:57;;;;;;;7.90;4.30;;;15.60;75.70;;;;;;10447076;28;20076;-24
2023/01/21 22:16:01;;;;;;;9.43;4.18;;;15.60;75.60;;;;;;10446666;28;20487;-24
2023/01/21 22:21:06;;;;;;;6.85;4.10;;;15.60;75.50;;;;;;10445881;28;20140;-25
2023/01/21 22:26:11;;;;;;;7.18;4.07;;;15.50;75.50;;;;;;10447818;28;20073;-27
2023/01/21 22:31:15;;;;;;;4.95;3.45;;;15.50;75.30;;;;;;10446232;28;20044;-25
2023/01/21 22:36:20;;;;;;;5.60;3.63;;;15.50;75.30;;;;;;10447383;28;20069;-24
2023/01/21 22:41:23;;;;;;;5.78;3.92;;;15.50;75.30;;;;;;10449120;28;20076;-25
2023/01/21 22:46:28;;;;;;;5.10;3.83;;;15.40;75.30;;;;;;10429430;28;20149;-22
2023/01/21 22:51:31;;;;;;;6.80;3.90;;;15.40;75.40;;;;;;10447551;28;20732;-24
2023/01/21 22:56:33;;;;;;;4.65;3.60;;;15.30;75.50;;;;;;10445983;28;20552;-25
2023/01/21 23:01:36;;;;;;;6.57;3.60;;;15.30;75.70;;;;;;10443606;28;20099;-24
2023/01/21 23:06:39;;;;;;;5.82;3.40;;;15.20;75.60;;;;;;10446988;28;20048;-24
2023/01/21 23:11:41;;;;;;;6.30;3.63;;;15.30;76.10;;;;;;10446097;28;20053;-24
2023/01/21 23:16:43;;;;;;;5.67;3.70;;;15.30;75.70;;;;;;10443543;28;20058;-24
2023/01/21 23:21:46;;;;;;;6.43;3.73;;;15.30;75.70;;;;;;10446924;28;20076;-25
2023/01/21 23:26:48;;;;;;;5.60;3.75;;;15.30;75.70;;;;;;10441886;28;20490;-26
2023/01/21 23:31:50;;;;;;;5.43;3.60;;;15.20;75.60;;;;;;10445431;28;20237;-27
2023/01/21 23:36:53;;;;;;;5.32;3.88;;;15.20;76.40;;;;;;10442405;28;20140;-26
2023/01/21 23:41:55;;;;;;;5.43;3.25;;;15.20;75.80;;;;;;10448226;28;20061;-27
2023/01/21 23:46:57;;;;;;;9.40;3.67;;;15.20;75.90;;;;;;10449672;28;20056;-25
2023/01/21 23:52:00;;;;;;;5.20;3.43;;;15.10;75.90;;;;;;10444891;28;20107;-24
2023/01/21 23:57:02;;;;;;;6.90;3.80;;;15.10;75.80;;;;;;10453163;28;20083;-24
